Governador Celso Ramos, Brazil
Current Conditions -  °F | °C
As of 1:00 PM on Tuesday 21 Oct 2014 (Local Time) from SBFL Reporting Station
Scattered Clouds Scattered Clouds  
Wind Chill: 72°   Ceiling: Unl
Heat Index: 72°   Visibility: 6mi
Dew Point: 57°   Wind: 10mph
Humidity: 60%   Direction: 110°ESE
Pressure: 30.21"   Gusts: NA
Location:  27.31°S, 48.56°W
Report Text: SBFL 211500Z 11009KT 9999 SCT035 22/14 Q1023
Loading
Personal Weather Stations






























Interactive Weather Map
Tropical Storm Tracking
New forecast layout! Learn more

10-Day Weather Forecast

Advertisements
Track Severe Weather on mobile